createdAt,value
2022-11-05T00:02:22.705Z,5.10
2022-11-05T00:05:31.588Z,5.40
2022-11-05T00:08:39.408Z,6.90
2022-11-05T00:11:43.350Z,7.00
2022-11-05T00:14:51.456Z,6.60
2022-11-05T00:17:41.350Z,8.30
2022-11-05T00:20:30.795Z,5.40
2022-11-05T00:23:38.685Z,7.60
2022-11-05T00:26:28.150Z,4.70
2022-11-05T00:29:17.693Z,9.10
2022-11-05T00:32:07.720Z,7.60
2022-11-05T00:34:57.271Z,8.50
2022-11-05T00:37:50.005Z,10.70
2022-11-05T00:40:40.147Z,9.90
2022-11-05T00:43:48.001Z,6.60
2022-11-05T00:46:37.545Z,8.10
2022-11-05T00:49:30.052Z,7.90
2022-11-05T00:52:37.958Z,6.70
2022-11-05T00:55:32.733Z,7.90
2022-11-05T00:58:23.435Z,8.00
2022-11-05T01:01:12.721Z,6.00
2022-11-05T01:04:02.299Z,11.40
2022-11-05T01:06:51.822Z,7.00
2022-11-05T01:09:41.258Z,8.60
2022-11-05T01:12:31.786Z,9.80
2022-11-05T01:15:21.629Z,7.80
2022-11-05T01:18:11.444Z,11.00
2022-11-05T01:21:09.302Z,6.80
2022-11-05T01:23:58.759Z,6.00
2022-11-05T01:26:48.237Z,5.70
2022-11-05T01:29:37.673Z,6.50
2022-11-05T01:32:27.223Z,7.50
2022-11-05T01:35:18.523Z,7.50
2022-11-05T01:38:07.948Z,8.20
2022-11-05T01:40:57.493Z,7.20
2022-11-05T01:43:49.325Z,4.40
2022-11-05T01:46:43.679Z,5.10
2022-11-05T01:49:34.184Z,10.10
2022-11-05T01:52:25.333Z,6.80
2022-11-05T01:55:19.644Z,7.00
2022-11-05T01:58:13.283Z,6.90
2022-11-05T02:01:03.173Z,8.20
2022-11-05T02:03:56.829Z,5.30
2022-11-05T02:06:47.066Z,6.40
2022-11-05T02:09:43.836Z,4.80
2022-11-05T02:12:34.457Z,6.80
2022-11-05T02:15:40.006Z,6.90
2022-11-05T02:18:41.665Z,4.40
2022-11-05T02:21:58.005Z,7.70
2022-11-05T02:25:27.200Z,3.10
2022-11-05T02:28:35.121Z,6.10
2022-11-05T02:31:33.059Z,4.40
2022-11-05T02:34:29.803Z,5.70
2022-11-05T02:37:32.299Z,5.00
2022-11-05T02:40:29.012Z,5.90
2022-11-05T02:43:30.274Z,6.00
2022-11-05T02:46:31.527Z,8.40
2022-11-05T02:49:33.186Z,4.80
2022-11-05T02:52:32.359Z,6.50
2022-11-05T02:55:28.427Z,4.20
2022-11-05T02:58:17.879Z,6.70
2022-11-05T03:01:09.516Z,4.50
2022-11-05T03:04:00.971Z,3.40
2022-11-05T03:07:03.001Z,6.20
2022-11-05T03:10:11.357Z,3.90
2022-11-05T03:13:12.656Z,3.60
2022-11-05T03:16:07.512Z,2.00
2022-11-05T03:19:04.885Z,5.70
2022-11-05T03:22:00.195Z,3.30
2022-11-05T03:24:55.863Z,3.50
2022-11-05T03:27:50.199Z,3.30
2022-11-05T03:30:42.385Z,3.10
2022-11-05T03:33:36.510Z,2.90
2022-11-05T03:36:30.956Z,1.90
2022-11-05T03:39:28.868Z,1.30
2022-11-05T03:42:21.500Z,2.10
2022-11-05T03:45:16.580Z,0.70
2022-11-05T03:48:09.944Z,3.30
2022-11-05T03:51:04.359Z,1.40
2022-11-05T03:53:57.552Z,3.90
2022-11-05T03:56:58.702Z,3.40
2022-11-05T03:59:50.516Z,4.20
2022-11-05T04:02:40.208Z,3.00
2022-11-05T04:05:29.935Z,3.50
2022-11-05T04:08:37.838Z,2.30
2022-11-05T04:11:57.266Z,2.10
2022-11-05T04:14:46.892Z,2.40
2022-11-05T04:17:36.472Z,2.00
2022-11-05T04:20:58.714Z,3.70
2022-11-05T04:24:06.363Z,3.00
2022-11-05T04:26:55.795Z,1.10
2022-11-05T04:30:03.607Z,3.10
2022-11-05T04:33:01.378Z,1.90
2022-11-05T04:35:50.435Z,0.80
2022-11-05T04:38:39.775Z,1.10
2022-11-05T04:41:29.319Z,1.20
2022-11-05T04:44:18.695Z,3.00
2022-11-05T04:47:08.207Z,1.40
2022-11-05T04:49:57.594Z,1.00
2022-11-05T04:52:47.179Z,2.20
2022-11-05T04:55:36.652Z,0.90
2022-11-05T04:58:26.151Z,1.30
2022-11-05T05:01:17.789Z,2.30
2022-11-05T05:04:07.146Z,1.90
2022-11-05T05:06:56.701Z,1.70
2022-11-05T05:09:46.217Z,3.00
2022-11-05T05:12:36.179Z,1.40
2022-11-05T05:15:25.700Z,1.80
2022-11-05T05:18:15.205Z,1.30
2022-11-05T05:21:23.121Z,1.90
2022-11-05T05:24:14.640Z,1.80
2022-11-05T05:27:03.913Z,1.20
2022-11-05T05:29:53.289Z,0.70
2022-11-05T05:32:42.828Z,1.00
2022-11-05T05:35:32.241Z,1.20
2022-11-05T05:38:21.740Z,1.00
2022-11-05T05:41:11.187Z,0.60
2022-11-05T05:44:01.088Z,0.50
2022-11-05T05:46:50.535Z,2.20
2022-11-05T05:49:40.116Z,0.60
2022-11-05T05:52:29.537Z,0.30
2022-11-05T05:55:19.066Z,0.50
2022-11-05T05:58:08.534Z,0.30
2022-11-05T06:01:01.606Z,0.90
2022-11-05T06:03:56.323Z,0.10
2022-11-05T06:06:46.813Z,0.10
2022-11-05T06:09:35.798Z,0.60
2022-11-05T06:12:25.289Z,0.10
2022-11-05T06:15:15.035Z,0.10
2022-11-05T06:18:04.807Z,0.80
2022-11-05T06:20:55.364Z,0.10
2022-11-05T06:26:34.299Z,0.10
2022-11-05T06:29:23.745Z,0.70
2022-11-05T06:32:13.259Z,0.80
2022-11-05T06:35:02.760Z,0.10
2022-11-05T06:37:52.250Z,0.20
2022-11-05T06:40:41.827Z,0.10
2022-11-05T06:43:31.296Z,0.10
2022-11-05T06:46:20.991Z,0.70
2022-11-05T06:49:10.465Z,1.40
2022-11-05T06:51:59.973Z,0.10
2022-11-05T06:54:49.550Z,0.80
2022-11-05T06:57:39.208Z,0.20
2022-11-05T07:00:28.789Z,0.30
2022-11-05T07:03:18.409Z,0.20
2022-11-05T07:06:08.597Z,0.70
2022-11-05T07:08:58.765Z,0.10
2022-11-05T07:11:47.822Z,0.20
2022-11-05T07:14:37.357Z,1.30
2022-11-05T07:17:28.163Z,0.50
2022-11-05T07:20:17.835Z,0.10
2022-11-05T07:23:10.910Z,0.10
2022-11-05T07:26:01.150Z,0.20
2022-11-05T07:28:50.538Z,0.20
2022-11-05T07:31:39.951Z,0.20
2022-11-05T07:34:29.370Z,0.60
2022-11-05T07:37:18.839Z,0.10
2022-11-05T07:40:10.621Z,0.10
2022-11-05T07:43:01.905Z,0.10
2022-11-05T07:45:50.957Z,0.30
2022-11-05T07:48:41.022Z,0.10
2022-11-05T07:51:30.045Z,0.20
2022-11-05T07:54:19.582Z,0.40
2022-11-05T07:57:09.107Z,0.10
2022-11-05T07:59:58.672Z,0.10
2022-11-05T08:03:02.309Z,0.10
2022-11-05T08:05:56.568Z,1.60
2022-11-05T08:08:47.127Z,0.10
2022-11-05T08:11:36.652Z,1.20
2022-11-05T08:14:26.130Z,0.10
2022-11-05T08:17:18.539Z,0.30
2022-11-05T08:20:10.145Z,0.20
2022-11-05T08:22:59.747Z,0.10
2022-11-05T08:25:49.141Z,0.40
2022-11-05T08:28:38.680Z,0.20
2022-11-05T08:31:28.831Z,0.30
2022-11-05T08:34:18.333Z,1.10
2022-11-05T08:37:11.370Z,0.20
2022-11-05T08:40:00.865Z,0.10
2022-11-05T08:42:50.405Z,0.10
2022-11-05T08:45:41.108Z,0.30
2022-11-05T08:48:30.107Z,0.40
2022-11-05T08:51:19.668Z,1.70
2022-11-05T08:54:09.366Z,0.60
2022-11-05T08:56:58.832Z,0.50
2022-11-05T08:59:48.232Z,0.30
2022-11-05T09:02:37.703Z,0.40
2022-11-05T09:05:27.108Z,0.40
2022-11-05T09:08:18.546Z,0.90
2022-11-05T09:11:08.751Z,0.50
2022-11-05T09:13:58.234Z,1.10
2022-11-05T09:16:47.845Z,0.30
2022-11-05T09:19:40.081Z,0.20
2022-11-05T09:22:29.983Z,0.50
2022-11-05T09:25:19.432Z,1.10
2022-11-05T09:28:15.917Z,0.50
2022-11-05T09:31:09.485Z,0.20
2022-11-05T09:33:58.703Z,0.30
2022-11-05T09:36:48.252Z,0.30
2022-11-05T09:39:37.747Z,0.30
2022-11-05T09:42:33.288Z,0.40
2022-11-05T09:45:27.121Z,0.40
2022-11-05T09:48:19.065Z,1.00
2022-11-05T09:51:18.072Z,3.00
2022-11-05T09:54:13.473Z,5.20
2022-11-05T09:57:06.536Z,3.50
2022-11-05T09:59:59.112Z,2.70
2022-11-05T10:02:51.415Z,0.50
2022-11-05T10:05:41.594Z,3.00
2022-11-05T10:08:40.078Z,6.70
2022-11-05T10:11:35.728Z,9.40
2022-11-05T10:14:28.631Z,12.60
2022-11-05T10:17:23.778Z,14.20
2022-11-05T10:20:20.282Z,10.50
2022-11-05T10:23:13.656Z,16.30
2022-11-05T10:26:06.517Z,15.40
2022-11-05T10:28:56.231Z,16.50
2022-11-05T10:31:45.693Z,18.50
2022-11-05T10:34:37.476Z,19.70
2022-11-05T10:37:28.695Z,18.60
2022-11-05T10:40:32.850Z,16.30
2022-11-05T10:43:30.837Z,19.10
2022-11-05T10:46:28.509Z,19.80
2022-11-05T10:49:31.306Z,21.60
2022-11-05T10:52:24.494Z,15.30
2022-11-05T10:55:24.684Z,20.80
2022-11-05T10:58:21.312Z,17.10
2022-11-05T11:01:12.290Z,25.40
2022-11-05T11:04:16.260Z,18.80
2022-11-05T11:07:06.053Z,20.30
2022-11-05T11:09:55.583Z,20.30
2022-11-05T11:12:45.073Z,20.70
2022-11-05T11:15:36.579Z,18.70
2022-11-05T11:18:31.517Z,14.70
2022-11-05T11:21:26.494Z,20.60
2022-11-05T11:24:22.635Z,17.60
2022-11-05T11:27:15.354Z,18.60
2022-11-05T11:30:07.193Z,18.40
2022-11-05T11:33:04.464Z,15.60
2022-11-05T11:36:00.050Z,16.40
2022-11-05T11:38:49.639Z,16.10
2022-11-05T11:41:43.280Z,14.80
2022-11-05T11:44:36.084Z,16.60
2022-11-05T11:47:27.779Z,13.30
2022-11-05T11:50:35.083Z,14.50
2022-11-05T11:53:29.689Z,13.40
2022-11-05T11:56:20.787Z,15.40
2022-11-05T11:59:35.132Z,16.90
2022-11-05T12:03:11.902Z,11.80
2022-11-05T12:06:25.145Z,13.00
2022-11-05T12:09:24.443Z,16.40
2022-11-05T12:12:16.395Z,11.90
2022-11-05T12:15:24.902Z,17.00
2022-11-05T12:18:19.665Z,15.40
2022-11-05T12:21:34.574Z,13.80
2022-11-05T12:24:46.012Z,18.10
2022-11-05T12:27:48.724Z,11.40
2022-11-05T12:30:48.343Z,13.60
2022-11-05T12:33:49.871Z,13.40
2022-11-05T12:36:57.738Z,12.80
2022-11-05T12:40:01.124Z,12.20
2022-11-05T12:43:10.529Z,12.80
2022-11-05T12:46:09.977Z,17.00
2022-11-05T12:49:42.403Z,14.10
2022-11-05T12:53:03.123Z,11.00
2022-11-05T12:55:59.681Z,15.60
2022-11-05T12:58:55.941Z,16.20
2022-11-05T13:01:50.554Z,15.80
2022-11-05T13:04:44.989Z,11.90
2022-11-05T13:07:38.397Z,19.50
2022-11-05T13:10:33.193Z,14.90
2022-11-05T13:13:30.860Z,15.50
2022-11-05T13:16:27.026Z,12.80
2022-11-05T13:19:26.800Z,17.70
2022-11-05T13:22:31.133Z,12.30
2022-11-05T13:25:23.572Z,12.90
2022-11-05T13:28:21.359Z,15.60
2022-11-05T13:31:15.681Z,16.80
2022-11-05T13:34:10.149Z,18.20
2022-11-05T13:37:21.668Z,13.60
2022-11-05T13:40:15.159Z,13.50
2022-11-05T13:43:16.041Z,15.30
2022-11-05T13:46:23.722Z,16.60
2022-11-05T13:49:44.609Z,13.40
2022-11-05T13:52:52.401Z,14.60
2022-11-05T13:55:56.760Z,15.70
2022-11-05T13:59:04.526Z,14.10
2022-11-05T14:01:58.387Z,14.40
2022-11-05T14:04:54.462Z,13.50
2022-11-05T14:07:48.811Z,13.50
2022-11-05T14:10:40.064Z,14.70
2022-11-05T14:13:35.325Z,17.40
2022-11-05T14:16:26.657Z,13.50
2022-11-05T14:19:35.533Z,16.00
2022-11-05T14:22:38.876Z,12.80
2022-11-05T14:26:12.487Z,14.70
2022-11-05T14:29:24.071Z,15.00
2022-11-05T14:32:27.856Z,14.40
2022-11-05T14:35:36.986Z,16.80
2022-11-05T14:38:27.893Z,14.80
2022-11-05T14:41:17.626Z,12.40
2022-11-05T14:44:11.558Z,15.80
2022-11-05T14:47:07.200Z,14.70
2022-11-05T14:50:01.890Z,19.40
2022-11-05T14:52:56.304Z,15.80
2022-11-05T14:55:45.524Z,18.50
2022-11-05T14:58:37.604Z,13.30
2022-11-05T15:01:59.192Z,18.50
2022-11-05T15:04:50.248Z,13.50
2022-11-05T15:07:39.700Z,13.90
2022-11-05T15:10:34.703Z,13.80
2022-11-05T15:13:31.290Z,16.80
2022-11-05T15:16:25.718Z,16.20
2022-11-05T15:19:21.460Z,15.80
2022-11-05T15:22:30.056Z,15.40
2022-11-05T15:25:26.125Z,11.10
2022-11-05T15:28:26.071Z,13.10
2022-11-05T15:31:36.082Z,15.10
2022-11-05T15:34:28.335Z,12.70
2022-11-05T15:37:27.710Z,13.00
2022-11-05T15:40:24.712Z,13.30
2022-11-05T15:43:19.202Z,13.80
2022-11-05T15:46:16.081Z,16.00
2022-11-05T15:49:06.525Z,21.50
2022-11-05T15:54:44.573Z,21.10
2022-11-05T15:57:39.300Z,23.10
2022-11-05T16:00:32.017Z,19.20
2022-11-05T16:03:29.101Z,30.30
2022-11-05T16:06:28.570Z,27.20
2022-11-05T16:09:27.630Z,28.70
2022-11-05T16:12:25.560Z,22.10
2022-11-05T16:15:24.712Z,18.30
2022-11-05T16:18:22.989Z,17.40
2022-11-05T16:21:14.761Z,19.40
2022-11-05T16:24:04.674Z,17.30
2022-11-05T16:27:04.333Z,15.50
2022-11-05T16:29:56.697Z,20.40
2022-11-05T16:32:47.311Z,51.30
2022-11-05T16:35:47.535Z,31.70
2022-11-05T16:38:36.771Z,26.60
2022-11-05T16:41:27.406Z,27.30
2022-11-05T16:44:17.171Z,32.20
2022-11-05T16:47:08.312Z,25.90
2022-11-05T16:49:58.463Z,26.60
2022-11-05T16:52:48.290Z,25.50
2022-11-05T16:55:39.894Z,83.90
2022-11-05T16:58:29.148Z,76.30
2022-11-05T17:01:22.288Z,48.80
2022-11-05T17:04:13.917Z,61.20
2022-11-05T17:07:03.387Z,46.20
2022-11-05T17:09:52.872Z,33.10
2022-11-05T17:12:43.345Z,29.40
2022-11-05T17:15:34.918Z,24.10
2022-11-05T17:18:24.623Z,29.80
2022-11-05T17:21:15.023Z,27.40
2022-11-05T17:24:04.789Z,26.90
2022-11-05T17:26:54.372Z,24.90
2022-11-05T17:29:43.800Z,20.90
2022-11-05T17:32:33.479Z,20.00
2022-11-05T17:35:23.442Z,22.50
2022-11-05T17:38:13.435Z,28.30
2022-11-05T17:41:09.631Z,32.20
2022-11-05T17:43:59.815Z,27.40
2022-11-05T17:46:49.227Z,21.00
2022-11-05T17:49:38.726Z,25.10
2022-11-05T17:52:29.168Z,22.40
2022-11-05T17:58:07.342Z,22.60
2022-11-05T18:00:56.814Z,23.10
2022-11-05T18:03:46.193Z,23.90
2022-11-05T18:06:36.123Z,24.70
2022-11-05T18:09:25.585Z,28.30
2022-11-05T18:12:15.156Z,27.00
2022-11-05T18:15:05.756Z,24.10
2022-11-05T18:17:55.319Z,31.30
2022-11-05T18:20:45.588Z,34.80
2022-11-05T18:23:34.720Z,26.00
2022-11-05T18:26:24.119Z,28.50
2022-11-05T18:29:13.605Z,23.80
2022-11-05T18:32:03.448Z,27.50
2022-11-05T18:34:52.924Z,27.90
2022-11-05T18:37:42.756Z,29.80
2022-11-05T18:40:32.423Z,31.20
2022-11-05T18:43:22.076Z,26.30
2022-11-05T18:46:29.202Z,37.40
2022-11-05T18:49:21.801Z,25.20
2022-11-05T18:52:11.453Z,29.10
2022-11-05T18:55:00.913Z,35.40
2022-11-05T18:57:50.361Z,30.10
2022-11-05T19:00:40.839Z,22.30
2022-11-05T19:03:30.496Z,22.80
2022-11-05T19:06:20.463Z,28.70
2022-11-05T19:09:11.447Z,27.60
2022-11-05T19:12:01.078Z,22.50
2022-11-05T19:14:50.620Z,27.00
2022-11-05T19:17:39.954Z,28.40
2022-11-05T19:20:33.662Z,29.40
2022-11-05T19:23:26.283Z,29.80
2022-11-05T19:26:20.850Z,35.90
2022-11-05T19:29:13.848Z,29.10
2022-11-05T19:32:03.820Z,30.60
2022-11-05T19:34:53.417Z,29.90
2022-11-05T19:37:43.033Z,46.70
2022-11-05T19:40:32.601Z,20.50
2022-11-05T19:43:22.261Z,17.00
2022-11-05T19:46:15.165Z,14.30
2022-11-05T19:49:04.762Z,17.90
2022-11-05T19:51:54.445Z,19.00
2022-11-05T19:54:45.532Z,14.50
2022-11-05T19:57:36.573Z,14.10
2022-11-05T20:00:26.046Z,18.50
2022-11-05T20:03:15.789Z,14.20
2022-11-05T20:06:08.276Z,16.50
2022-11-05T20:09:20.615Z,18.80
2022-11-05T20:12:08.829Z,16.30
2022-11-05T20:14:58.583Z,14.20
2022-11-05T20:17:54.572Z,18.00
2022-11-05T20:20:44.622Z,13.30
2022-11-05T20:26:23.216Z,14.60
2022-11-05T20:29:12.861Z,15.50
2022-11-05T20:32:02.834Z,17.60
2022-11-05T20:34:52.384Z,21.00
2022-11-05T20:37:41.991Z,17.90
2022-11-05T20:40:31.503Z,16.50
2022-11-05T20:43:23.748Z,14.20
2022-11-05T20:46:18.797Z,14.10
2022-11-05T20:49:08.287Z,16.20
2022-11-05T20:51:58.107Z,19.90
2022-11-05T20:54:48.248Z,21.20
2022-11-05T20:57:38.438Z,19.00
2022-11-05T21:00:30.786Z,16.80
2022-11-05T21:03:20.840Z,19.20
2022-11-05T21:06:10.408Z,16.40
2022-11-05T21:09:00.547Z,17.00
2022-11-05T21:12:08.219Z,23.10
2022-11-05T21:14:57.642Z,19.60
2022-11-05T21:17:47.200Z,17.80
2022-11-05T21:20:39.870Z,18.60
2022-11-05T21:23:31.576Z,23.00
2022-11-05T21:26:21.256Z,18.10
2022-11-05T21:29:11.101Z,19.10
2022-11-05T21:32:00.720Z,16.10
2022-11-05T21:34:50.472Z,16.60
2022-11-05T21:37:39.981Z,17.20
2022-11-05T21:40:29.434Z,20.90
2022-11-05T21:43:18.980Z,19.20
2022-11-05T21:46:09.552Z,23.40
2022-11-05T21:48:59.050Z,21.90
2022-11-05T21:52:06.735Z,17.70
2022-11-05T21:55:14.559Z,17.30
2022-11-05T21:58:30.658Z,14.90
2022-11-05T22:01:20.512Z,15.40
2022-11-05T22:04:10.107Z,13.90
2022-11-05T22:07:00.290Z,18.50
2022-11-05T22:09:49.945Z,17.50
2022-11-05T22:12:39.375Z,17.20
2022-11-05T22:15:29.785Z,14.40
2022-11-05T22:21:08.314Z,18.80
2022-11-05T22:23:57.734Z,14.50
2022-11-05T22:26:47.787Z,22.10
2022-11-05T22:29:37.637Z,16.40
2022-11-05T22:32:28.688Z,13.30
2022-11-05T22:35:19.199Z,16.40
2022-11-05T22:38:08.719Z,15.60
2022-11-05T22:40:58.098Z,14.50
2022-11-05T22:43:47.782Z,17.30
2022-11-05T22:46:38.040Z,19.80
2022-11-05T22:49:27.426Z,20.20
2022-11-05T22:52:19.671Z,16.60
2022-11-05T22:55:10.115Z,25.00
2022-11-05T23:00:47.861Z,17.10
2022-11-05T23:03:37.851Z,15.60
2022-11-05T23:06:47.774Z,20.10
2022-11-05T23:09:51.576Z,17.80
2022-11-05T23:12:43.862Z,17.10
2022-11-05T23:15:51.703Z,17.40
2022-11-05T23:18:59.130Z,18.10
2022-11-05T23:22:06.941Z,15.60
2022-11-05T23:24:56.382Z,17.10
2022-11-05T23:27:53.231Z,15.10
2022-11-05T23:30:59.159Z,18.20
2022-11-05T23:33:48.837Z,16.70
2022-11-05T23:36:56.355Z,17.60
2022-11-05T23:39:45.810Z,17.30
2022-11-05T23:42:53.928Z,18.10
2022-11-05T23:46:02.932Z,14.50
2022-11-05T23:48:52.397Z,15.20
2022-11-05T23:51:41.818Z,17.70
2022-11-05T23:54:31.185Z,20.70
2022-11-05T23:57:22.363Z,17.40
